createdAt,value
2023-07-31T00:01:58.989Z,4.00
2023-07-31T00:04:30.728Z,4.30
2023-07-31T00:07:05.278Z,4.20
2023-07-31T00:09:37.126Z,4.10
2023-07-31T00:12:10.249Z,4.50
2023-07-31T00:14:41.951Z,4.10
2023-07-31T00:17:13.646Z,4.20
2023-07-31T00:19:47.189Z,5.10
2023-07-31T00:22:18.893Z,4.30
2023-07-31T00:24:50.573Z,4.40
2023-07-31T00:27:22.289Z,4.70
2023-07-31T00:29:54.046Z,4.80
2023-07-31T00:32:25.755Z,4.60
2023-07-31T00:34:57.570Z,3.70
2023-07-31T00:37:29.279Z,3.90
2023-07-31T00:40:01.537Z,3.80
2023-07-31T00:42:33.489Z,4.50
2023-07-31T00:45:05.852Z,3.80
2023-07-31T00:47:37.616Z,3.80
2023-07-31T00:50:11.096Z,4.10
2023-07-31T00:52:42.796Z,4.10
2023-07-31T00:55:14.656Z,3.90
2023-07-31T00:57:47.180Z,4.00
2023-07-31T01:00:18.969Z,4.10
2023-07-31T01:02:51.477Z,3.70
2023-07-31T01:05:31.596Z,4.30
2023-07-31T01:08:13.301Z,4.00
2023-07-31T01:10:52.759Z,3.50
2023-07-31T01:13:25.474Z,3.90
2023-07-31T01:15:57.194Z,4.20
2023-07-31T01:18:28.965Z,3.40
2023-07-31T01:21:08.965Z,3.10
2023-07-31T01:24:02.742Z,2.40
2023-07-31T01:26:38.589Z,2.80
2023-07-31T01:29:19.518Z,2.50
2023-07-31T01:31:52.221Z,2.50
2023-07-31T01:34:25.424Z,2.80
2023-07-31T01:36:57.642Z,2.80
2023-07-31T01:39:29.359Z,2.30
2023-07-31T01:42:01.070Z,2.50
2023-07-31T01:44:33.872Z,2.00
2023-07-31T01:47:05.972Z,1.90
2023-07-31T01:49:37.692Z,2.10
2023-07-31T01:52:10.314Z,2.00
2023-07-31T01:54:42.019Z,2.10
2023-07-31T01:57:13.760Z,2.00
2023-07-31T01:59:45.485Z,1.80
2023-07-31T02:02:17.165Z,1.80
2023-07-31T02:04:49.241Z,2.00
2023-07-31T02:07:20.938Z,2.10
2023-07-31T02:09:52.613Z,2.10
2023-07-31T02:12:24.406Z,2.30
2023-07-31T02:14:56.083Z,2.20
2023-07-31T02:17:27.873Z,2.10
2023-07-31T02:19:59.558Z,2.30
2023-07-31T02:22:31.198Z,2.20
2023-07-31T02:25:02.882Z,2.10
2023-07-31T02:27:34.555Z,2.20
2023-07-31T02:30:06.836Z,2.20
2023-07-31T02:32:38.625Z,2.20
2023-07-31T02:35:11.181Z,2.20
2023-07-31T02:37:43.084Z,2.80
2023-07-31T02:40:15.738Z,2.20
2023-07-31T02:42:47.408Z,2.30
2023-07-31T02:45:19.239Z,2.50
2023-07-31T02:47:50.936Z,2.90
2023-07-31T02:50:22.830Z,2.20
2023-07-31T02:52:54.518Z,2.50
2023-07-31T02:55:26.286Z,2.20
2023-07-31T02:57:59.337Z,2.50
2023-07-31T03:00:31.148Z,2.40
2023-07-31T03:03:02.926Z,2.60
2023-07-31T03:05:34.812Z,2.70
2023-07-31T03:08:06.854Z,2.50
2023-07-31T03:10:38.540Z,3.30
2023-07-31T03:13:10.300Z,3.00
2023-07-31T03:15:43.966Z,2.70
2023-07-31T03:18:15.771Z,2.60
2023-07-31T03:20:47.637Z,2.70
2023-07-31T03:23:19.321Z,3.10
2023-07-31T03:26:01.944Z,3.10
2023-07-31T03:31:04.133Z,2.60
2023-07-31T03:33:35.843Z,1.80
2023-07-31T03:36:08.687Z,2.30
2023-07-31T03:38:40.363Z,2.10
2023-07-31T03:41:12.573Z,2.20
2023-07-31T03:43:44.224Z,2.30
2023-07-31T03:46:15.946Z,2.20
2023-07-31T03:48:47.788Z,2.00
2023-07-31T03:51:19.824Z,2.00
2023-07-31T03:53:51.489Z,2.30
2023-07-31T03:56:24.767Z,2.30
2023-07-31T03:58:56.486Z,2.10
2023-07-31T04:01:28.374Z,2.50
2023-07-31T04:04:00.179Z,2.50
2023-07-31T04:06:31.869Z,2.30
2023-07-31T04:09:03.924Z,2.20
2023-07-31T04:11:35.634Z,2.40
2023-07-31T04:14:07.286Z,2.30
2023-07-31T04:16:39.182Z,3.10
2023-07-31T04:19:11.785Z,2.80
2023-07-31T04:21:43.471Z,2.00
2023-07-31T04:24:15.197Z,2.30
2023-07-31T04:26:46.877Z,2.50
2023-07-31T04:29:18.626Z,2.20
2023-07-31T04:31:51.371Z,2.30
2023-07-31T04:34:23.042Z,2.00
2023-07-31T04:36:54.744Z,2.60
2023-07-31T04:39:26.436Z,1.90
2023-07-31T04:41:58.150Z,2.30
2023-07-31T04:44:29.848Z,2.40
2023-07-31T04:47:03.035Z,2.30
2023-07-31T04:49:35.098Z,2.10
2023-07-31T04:52:07.983Z,2.00
2023-07-31T04:54:39.669Z,2.30
2023-07-31T04:57:11.916Z,2.40
2023-07-31T04:59:43.606Z,2.40
2023-07-31T05:02:15.450Z,2.00
2023-07-31T05:04:47.211Z,2.10
2023-07-31T05:07:19.047Z,2.50
2023-07-31T05:09:50.736Z,2.10
2023-07-31T05:12:22.441Z,1.90
2023-07-31T05:14:54.059Z,1.90
2023-07-31T05:17:25.766Z,2.20
2023-07-31T05:19:57.451Z,1.90
2023-07-31T05:22:29.113Z,2.40
2023-07-31T05:25:00.935Z,1.80
2023-07-31T05:27:33.441Z,2.40
2023-07-31T05:30:05.437Z,2.60
2023-07-31T05:32:37.267Z,3.10
2023-07-31T05:35:10.171Z,2.70
2023-07-31T05:37:41.881Z,2.10
2023-07-31T05:40:14.364Z,2.60
2023-07-31T05:42:46.146Z,2.80
2023-07-31T05:45:17.935Z,2.90
2023-07-31T05:47:49.700Z,2.20
2023-07-31T05:50:21.497Z,2.00
2023-07-31T05:52:53.228Z,2.50
2023-07-31T05:55:25.070Z,2.00
2023-07-31T05:57:58.074Z,2.70
2023-07-31T06:00:31.397Z,2.30
2023-07-31T06:03:03.200Z,1.90
2023-07-31T06:05:35.152Z,1.90
2023-07-31T06:08:07.179Z,1.90
2023-07-31T06:10:38.928Z,1.90
2023-07-31T06:13:10.709Z,2.10
2023-07-31T06:15:42.467Z,1.90
2023-07-31T06:18:14.208Z,2.30
2023-07-31T06:20:45.963Z,1.90
2023-07-31T06:23:19.753Z,1.70
2023-07-31T06:25:51.579Z,2.20
2023-07-31T06:28:23.575Z,2.00
2023-07-31T06:30:55.330Z,2.00
2023-07-31T06:33:27.355Z,2.10
2023-07-31T06:35:59.080Z,2.20
2023-07-31T06:38:30.991Z,2.00
2023-07-31T06:41:02.886Z,1.90
2023-07-31T06:43:34.649Z,1.90
2023-07-31T06:46:09.987Z,2.10
2023-07-31T06:48:41.748Z,1.90
2023-07-31T06:51:13.482Z,2.00
2023-07-31T06:53:46.318Z,2.10
2023-07-31T06:56:18.164Z,1.80
2023-07-31T06:58:49.804Z,3.60
2023-07-31T07:01:21.610Z,1.90
2023-07-31T07:03:53.408Z,1.80
2023-07-31T07:06:25.696Z,2.10
2023-07-31T07:08:57.477Z,2.10
2023-07-31T07:11:29.344Z,2.30
2023-07-31T07:14:01.640Z,2.60
2023-07-31T07:16:33.406Z,2.00
2023-07-31T07:19:05.577Z,2.60
2023-07-31T07:21:37.415Z,2.60
2023-07-31T07:24:09.477Z,2.30
2023-07-31T07:26:41.515Z,2.50
2023-07-31T07:29:13.518Z,2.40
2023-07-31T07:31:45.297Z,2.30
2023-07-31T07:34:16.992Z,2.30
2023-07-31T07:36:48.720Z,2.80
2023-07-31T07:39:20.407Z,2.40
2023-07-31T07:41:52.150Z,2.60
2023-07-31T07:44:23.906Z,2.20
2023-07-31T07:46:55.574Z,2.20
2023-07-31T07:49:27.390Z,2.30
2023-07-31T07:51:59.093Z,2.40
2023-07-31T07:54:30.818Z,2.50
2023-07-31T07:57:02.846Z,2.40
2023-07-31T07:59:34.589Z,2.50
2023-07-31T08:02:06.591Z,2.40
2023-07-31T08:04:38.228Z,2.50
2023-07-31T08:07:10.058Z,2.40
2023-07-31T08:09:42.187Z,2.80
2023-07-31T08:12:13.860Z,2.40
2023-07-31T08:14:45.572Z,3.20
2023-07-31T08:17:17.300Z,2.50
2023-07-31T08:19:49.155Z,2.20
2023-07-31T08:22:20.910Z,2.50
2023-07-31T08:24:52.687Z,2.50
2023-07-31T08:27:24.578Z,2.60
2023-07-31T08:29:56.894Z,2.30
2023-07-31T08:32:28.692Z,2.60
2023-07-31T08:35:00.424Z,2.30
2023-07-31T08:37:32.168Z,2.10
2023-07-31T08:40:08.011Z,2.60
2023-07-31T08:42:47.423Z,2.10
2023-07-31T08:45:20.638Z,2.20
2023-07-31T08:47:54.419Z,2.00
2023-07-31T08:50:26.276Z,1.90
2023-07-31T08:52:59.053Z,2.30
2023-07-31T08:55:33.231Z,2.20
2023-07-31T08:58:06.863Z,2.20
2023-07-31T09:00:40.142Z,2.20
2023-07-31T09:03:15.581Z,2.00
2023-07-31T09:05:48.872Z,2.70
2023-07-31T09:08:22.881Z,2.10
2023-07-31T09:10:55.887Z,2.80
2023-07-31T09:13:27.729Z,2.30
2023-07-31T09:15:59.607Z,2.30
2023-07-31T09:18:31.374Z,2.90
2023-07-31T09:21:08.150Z,2.10
2023-07-31T09:23:49.024Z,2.30
2023-07-31T09:26:34.864Z,2.20
2023-07-31T09:29:09.367Z,2.40
2023-07-31T09:31:46.324Z,2.40
2023-07-31T09:34:18.545Z,1.90
2023-07-31T09:36:54.596Z,2.20
2023-07-31T09:39:26.321Z,2.30
2023-07-31T09:41:59.383Z,2.10
2023-07-31T09:44:43.170Z,1.90
2023-07-31T09:47:26.685Z,1.90
2023-07-31T09:49:58.846Z,2.10
2023-07-31T09:52:30.939Z,2.00
2023-07-31T09:55:02.753Z,1.70
2023-07-31T09:57:35.311Z,2.20
2023-07-31T10:00:10.406Z,2.10
2023-07-31T10:02:43.304Z,1.90
2023-07-31T10:05:17.056Z,2.30
2023-07-31T10:07:53.673Z,2.10
2023-07-31T10:10:27.181Z,1.80
2023-07-31T10:13:01.143Z,2.20
2023-07-31T10:15:34.009Z,2.10
2023-07-31T10:18:07.895Z,2.30
2023-07-31T10:20:40.302Z,1.70
2023-07-31T10:23:12.793Z,1.70
2023-07-31T10:25:46.140Z,2.00
2023-07-31T10:28:18.023Z,1.80
2023-07-31T10:30:51.931Z,2.30
2023-07-31T10:33:23.942Z,1.80
2023-07-31T10:36:17.859Z,2.00
2023-07-31T10:38:52.823Z,1.70
2023-07-31T10:41:32.276Z,2.10
2023-07-31T10:44:04.770Z,1.90
2023-07-31T10:46:36.581Z,4.50
2023-07-31T10:49:08.303Z,2.20
2023-07-31T10:51:42.768Z,2.00
2023-07-31T10:54:20.312Z,2.20
2023-07-31T10:56:54.178Z,2.00
2023-07-31T10:59:36.619Z,2.10
2023-07-31T11:02:25.686Z,2.30
2023-07-31T11:05:13.730Z,1.90
2023-07-31T11:07:52.084Z,2.30
2023-07-31T11:10:26.816Z,2.10
2023-07-31T11:12:58.582Z,2.10
2023-07-31T11:15:31.748Z,1.80
2023-07-31T11:18:06.437Z,1.90
2023-07-31T11:20:39.895Z,2.30
2023-07-31T11:23:13.448Z,1.70
2023-07-31T11:25:45.687Z,1.90
2023-07-31T11:28:18.559Z,1.90
2023-07-31T11:30:50.542Z,2.20
2023-07-31T11:33:22.320Z,2.10
2023-07-31T11:35:54.436Z,1.90
2023-07-31T11:38:27.764Z,1.90
2023-07-31T11:41:03.438Z,1.90
2023-07-31T11:43:37.656Z,2.00
2023-07-31T11:46:09.418Z,1.90
2023-07-31T11:48:41.871Z,2.30
2023-07-31T11:51:16.376Z,2.10
2023-07-31T11:53:52.481Z,1.70
2023-07-31T11:58:57.326Z,1.70
2023-07-31T12:01:30.200Z,1.40
2023-07-31T12:04:02.253Z,2.00
2023-07-31T12:06:40.234Z,1.90
2023-07-31T12:09:12.227Z,1.90
2023-07-31T12:11:50.655Z,2.00
2023-07-31T12:14:29.681Z,1.90
2023-07-31T12:17:03.475Z,2.20
2023-07-31T12:19:36.226Z,1.90
2023-07-31T12:22:15.285Z,2.50
2023-07-31T12:24:47.742Z,2.10
2023-07-31T12:27:19.779Z,2.10
2023-07-31T12:29:51.460Z,2.00
2023-07-31T12:32:25.155Z,1.70
2023-07-31T12:34:56.925Z,1.80
2023-07-31T12:37:28.943Z,2.00
2023-07-31T12:40:08.604Z,2.40
2023-07-31T12:42:40.711Z,1.90
2023-07-31T12:45:13.037Z,1.80
2023-07-31T12:47:44.761Z,2.40
2023-07-31T12:50:16.521Z,2.30
2023-07-31T12:52:48.266Z,2.40
2023-07-31T12:55:20.417Z,1.90
2023-07-31T12:57:52.556Z,1.80
2023-07-31T13:00:27.359Z,1.80
2023-07-31T13:02:59.430Z,1.90
2023-07-31T13:05:31.556Z,1.80
2023-07-31T13:08:03.226Z,1.90
2023-07-31T13:10:35.007Z,2.40
2023-07-31T13:13:06.703Z,2.10
2023-07-31T13:15:38.491Z,2.30
2023-07-31T13:18:10.221Z,2.00
2023-07-31T13:20:41.907Z,2.00
2023-07-31T13:23:13.658Z,2.00
2023-07-31T13:25:45.478Z,1.70
2023-07-31T13:28:17.349Z,2.10
2023-07-31T13:30:49.022Z,1.80
2023-07-31T13:33:35.555Z,2.30
2023-07-31T13:36:08.533Z,1.80
2023-07-31T13:38:40.183Z,1.90
2023-07-31T13:41:11.858Z,1.60
2023-07-31T13:43:43.566Z,2.60
2023-07-31T13:46:15.325Z,1.90
2023-07-31T13:48:47.077Z,1.70
2023-07-31T13:51:18.788Z,2.00
2023-07-31T13:53:50.476Z,1.80
2023-07-31T13:56:22.142Z,1.80
2023-07-31T13:58:54.217Z,1.80
2023-07-31T14:01:26.335Z,2.10
2023-07-31T14:03:58.151Z,2.00
2023-07-31T14:06:29.950Z,1.70
2023-07-31T14:09:01.617Z,2.00
2023-07-31T14:11:34.450Z,1.90
2023-07-31T14:14:06.727Z,1.80
2023-07-31T14:16:38.954Z,2.30
2023-07-31T14:19:11.285Z,2.00
2023-07-31T14:21:43.686Z,1.80
2023-07-31T14:24:17.379Z,2.00
2023-07-31T14:26:49.347Z,1.80
2023-07-31T14:29:21.071Z,2.00
2023-07-31T14:31:52.836Z,2.10
2023-07-31T14:34:24.556Z,1.80
2023-07-31T14:36:56.331Z,1.90
2023-07-31T14:39:28.005Z,1.90
2023-07-31T14:44:39.211Z,2.30
2023-07-31T14:47:11.122Z,2.00
2023-07-31T14:49:42.837Z,1.90
2023-07-31T14:52:14.601Z,1.70
2023-07-31T14:54:47.617Z,2.00
2023-07-31T14:57:19.446Z,2.00
2023-07-31T14:59:51.095Z,1.80
2023-07-31T15:02:23.431Z,3.60
2023-07-31T15:04:55.128Z,1.60
2023-07-31T15:07:26.919Z,2.10
2023-07-31T15:09:58.616Z,1.60
2023-07-31T15:12:30.964Z,2.10
2023-07-31T15:15:02.729Z,1.80
2023-07-31T15:17:34.542Z,2.00
2023-07-31T15:20:07.682Z,1.80
2023-07-31T15:22:39.415Z,1.90
2023-07-31T15:25:12.305Z,2.20
2023-07-31T15:27:43.979Z,1.60
2023-07-31T15:30:15.836Z,1.80
2023-07-31T15:32:49.760Z,1.90
2023-07-31T15:35:22.783Z,1.70
2023-07-31T15:37:54.640Z,1.90
2023-07-31T15:40:26.304Z,1.80
2023-07-31T15:42:58.049Z,1.60
2023-07-31T15:45:29.771Z,1.70
2023-07-31T15:48:01.493Z,1.80
2023-07-31T15:50:33.254Z,1.70
2023-07-31T15:53:05.010Z,1.50
2023-07-31T15:55:36.835Z,1.80
2023-07-31T15:58:08.581Z,1.50
2023-07-31T16:00:40.335Z,1.50
2023-07-31T16:03:34.750Z,1.70
2023-07-31T16:06:06.598Z,1.40
2023-07-31T16:08:42.064Z,2.10
2023-07-31T16:11:13.962Z,1.50
2023-07-31T16:13:45.713Z,1.70
2023-07-31T16:16:17.519Z,1.70
2023-07-31T16:18:49.327Z,1.80
2023-07-31T16:21:21.187Z,1.70
2023-07-31T16:23:52.935Z,1.70
2023-07-31T16:26:24.641Z,1.60
2023-07-31T16:28:56.324Z,1.70
2023-07-31T16:31:31.161Z,1.60
2023-07-31T16:34:06.674Z,1.80
2023-07-31T16:36:38.619Z,1.20
2023-07-31T16:39:10.504Z,1.70
2023-07-31T16:41:42.507Z,1.80
2023-07-31T16:44:17.425Z,1.40
2023-07-31T16:46:49.397Z,1.50
2023-07-31T16:49:21.161Z,1.40
2023-07-31T16:51:53.499Z,1.80
2023-07-31T16:54:25.191Z,1.70
2023-07-31T16:57:00.135Z,1.90
2023-07-31T16:59:32.593Z,1.80
2023-07-31T17:02:04.529Z,1.40
2023-07-31T17:04:36.681Z,1.80
2023-07-31T17:07:08.579Z,2.30
2023-07-31T17:09:40.360Z,2.00
2023-07-31T17:12:12.441Z,1.70
2023-07-31T17:14:44.242Z,2.30
2023-07-31T17:17:15.912Z,2.10
2023-07-31T17:19:47.619Z,2.40
2023-07-31T17:22:19.327Z,2.20
2023-07-31T17:24:51.009Z,2.10
2023-07-31T17:27:24.506Z,2.10
2023-07-31T17:29:57.424Z,2.00
2023-07-31T17:32:29.144Z,1.70
2023-07-31T17:35:00.850Z,1.90
2023-07-31T17:37:32.548Z,2.60
2023-07-31T17:40:04.997Z,2.00
2023-07-31T17:42:36.743Z,1.80
2023-07-31T17:45:10.304Z,2.40
2023-07-31T17:47:41.973Z,2.50
2023-07-31T17:50:13.994Z,1.90
2023-07-31T17:52:45.678Z,2.10
2023-07-31T17:55:17.528Z,2.00
2023-07-31T17:57:49.212Z,2.10
2023-07-31T18:00:23.574Z,1.80
2023-07-31T18:02:55.408Z,2.60
2023-07-31T18:05:27.210Z,2.10
2023-07-31T18:07:58.952Z,2.20
2023-07-31T18:10:30.674Z,1.90
2023-07-31T18:13:02.544Z,3.30
2023-07-31T18:15:34.289Z,2.20
2023-07-31T18:18:06.152Z,2.60
2023-07-31T18:20:40.368Z,2.00
2023-07-31T18:23:12.107Z,2.00
2023-07-31T18:25:44.823Z,2.10
2023-07-31T18:28:16.605Z,2.30
2023-07-31T18:30:48.374Z,2.20
2023-07-31T18:33:20.069Z,1.90
2023-07-31T18:35:51.805Z,3.10
2023-07-31T18:38:23.501Z,2.50
2023-07-31T18:40:55.169Z,3.00
2023-07-31T18:43:26.938Z,2.50
2023-07-31T18:45:58.651Z,3.00
2023-07-31T18:48:31.725Z,2.90
2023-07-31T18:51:03.693Z,2.30
2023-07-31T18:53:35.367Z,2.10
2023-07-31T18:56:07.473Z,2.40
2023-07-31T18:58:39.211Z,2.40
2023-07-31T19:01:10.948Z,2.50
2023-07-31T19:03:42.668Z,2.20
2023-07-31T19:06:14.438Z,3.00
2023-07-31T19:08:46.417Z,2.40
2023-07-31T19:11:31.256Z,2.90
2023-07-31T19:14:04.709Z,2.60
2023-07-31T19:16:36.524Z,2.60
2023-07-31T19:19:08.320Z,2.50
2023-07-31T19:21:40.047Z,2.40
2023-07-31T19:24:11.763Z,2.90
2023-07-31T19:26:44.638Z,3.70
2023-07-31T19:29:16.345Z,3.50
2023-07-31T19:31:48.058Z,3.20
2023-07-31T19:34:19.773Z,3.00
2023-07-31T19:36:51.477Z,3.60
2023-07-31T19:39:23.174Z,3.30
2023-07-31T19:41:54.837Z,3.80
2023-07-31T19:44:26.633Z,3.40
2023-07-31T19:46:58.291Z,3.40
2023-07-31T19:49:30.717Z,3.90
2023-07-31T19:52:02.369Z,3.80
2023-07-31T19:54:34.120Z,4.10
2023-07-31T19:57:06.498Z,4.90
2023-07-31T19:59:38.199Z,3.80
2023-07-31T20:02:10.180Z,5.00
2023-07-31T20:04:41.936Z,6.00
2023-07-31T20:07:13.688Z,5.50
2023-07-31T20:09:45.453Z,4.30
2023-07-31T20:12:17.223Z,5.10
2023-07-31T20:14:49.986Z,5.00
2023-07-31T20:17:21.773Z,3.90
2023-07-31T20:19:53.448Z,4.90
2023-07-31T20:22:25.355Z,4.70
2023-07-31T20:24:57.104Z,5.30
2023-07-31T20:27:28.764Z,5.90
2023-07-31T20:30:00.729Z,6.30
2023-07-31T20:32:32.634Z,5.80
2023-07-31T20:35:04.769Z,5.60
2023-07-31T20:37:36.483Z,4.90
2023-07-31T20:40:11.251Z,5.60
2023-07-31T20:42:42.953Z,4.90
2023-07-31T20:45:15.502Z,4.80
2023-07-31T20:47:47.503Z,4.70
2023-07-31T20:50:19.436Z,5.00
2023-07-31T20:52:51.229Z,4.70
2023-07-31T20:55:22.948Z,4.40
2023-07-31T20:57:55.916Z,5.20
2023-07-31T21:00:27.845Z,5.10
2023-07-31T21:02:59.723Z,4.80
2023-07-31T21:05:31.551Z,4.90
2023-07-31T21:08:04.052Z,4.50
2023-07-31T21:10:39.725Z,5.80
2023-07-31T21:13:11.479Z,4.60
2023-07-31T21:15:48.201Z,5.20
2023-07-31T21:18:20.005Z,5.40
2023-07-31T21:20:51.814Z,5.70
2023-07-31T21:23:23.505Z,5.00
2023-07-31T21:25:55.470Z,5.60
2023-07-31T21:28:27.239Z,5.90
2023-07-31T21:30:58.947Z,5.90
2023-07-31T21:33:32.946Z,6.60
2023-07-31T21:36:05.187Z,5.90
2023-07-31T21:38:36.977Z,6.80
2023-07-31T21:41:08.648Z,5.70
2023-07-31T21:43:40.314Z,5.60
2023-07-31T21:46:12.057Z,5.70
2023-07-31T21:48:43.777Z,5.90
2023-07-31T21:51:15.472Z,6.00
2023-07-31T21:53:47.226Z,5.40
2023-07-31T21:56:19.019Z,6.00
2023-07-31T21:58:50.672Z,5.80
2023-07-31T22:01:22.507Z,5.60
2023-07-31T22:03:54.249Z,6.00
2023-07-31T22:06:26.023Z,5.50
2023-07-31T22:08:57.732Z,5.50
2023-07-31T22:11:29.484Z,5.00
2023-07-31T22:14:01.397Z,4.50
2023-07-31T22:16:34.616Z,4.70
2023-07-31T22:19:06.439Z,4.80
2023-07-31T22:21:38.559Z,5.30
2023-07-31T22:24:10.226Z,4.60
2023-07-31T22:26:42.172Z,4.40
2023-07-31T22:29:14.760Z,4.50
2023-07-31T22:31:46.465Z,4.20
2023-07-31T22:34:18.215Z,5.20
2023-07-31T22:36:49.952Z,4.30
2023-07-31T22:39:21.699Z,4.40
2023-07-31T22:41:53.420Z,4.40
2023-07-31T22:44:25.296Z,4.80
2023-07-31T22:46:56.987Z,4.10
2023-07-31T22:49:28.677Z,4.10
2023-07-31T22:52:00.535Z,4.20
2023-07-31T22:54:32.269Z,4.20
2023-07-31T22:57:04.128Z,4.30
2023-07-31T22:59:36.035Z,4.10
2023-07-31T23:02:09.679Z,3.90
2023-07-31T23:04:42.189Z,4.90
2023-07-31T23:07:13.906Z,4.50
2023-07-31T23:09:45.541Z,4.30
2023-07-31T23:12:17.208Z,4.40
2023-07-31T23:14:48.987Z,4.30
2023-07-31T23:17:20.687Z,4.90
2023-07-31T23:19:52.380Z,4.60
2023-07-31T23:22:24.074Z,4.70
2023-07-31T23:24:56.903Z,4.00
2023-07-31T23:27:28.650Z,4.10
2023-07-31T23:30:00.634Z,4.30
2023-07-31T23:32:32.688Z,4.80
2023-07-31T23:35:04.747Z,4.20
2023-07-31T23:37:36.419Z,4.10
2023-07-31T23:40:09.970Z,4.30
2023-07-31T23:42:41.910Z,4.20
2023-07-31T23:45:16.262Z,4.10
2023-07-31T23:47:48.010Z,4.00
2023-07-31T23:50:19.929Z,4.40
2023-07-31T23:52:51.755Z,4.30
2023-07-31T23:55:23.626Z,5.00
2023-07-31T23:57:55.845Z,4.40
